createdAt,value
2023-03-27T00:01:16.459Z,0.83
2023-03-27T00:03:43.720Z,1.10
2023-03-27T00:06:16.321Z,0.90
2023-03-27T00:08:46.905Z,1.00
2023-03-27T00:11:14.146Z,1.20
2023-03-27T00:13:49.093Z,1.30
2023-03-27T00:16:17.990Z,1.30
2023-03-27T00:18:45.815Z,1.30
2023-03-27T00:21:13.272Z,1.70
2023-03-27T00:23:40.689Z,1.67
2023-03-27T00:26:07.874Z,1.60
2023-03-27T00:28:35.559Z,1.50
2023-03-27T00:31:02.932Z,1.57
2023-03-27T00:33:30.266Z,1.33
2023-03-27T00:35:57.444Z,1.40
2023-03-27T00:38:24.602Z,1.63
2023-03-27T00:40:54.407Z,1.60
2023-03-27T00:43:23.579Z,1.80
2023-03-27T00:45:52.001Z,1.40
2023-03-27T00:48:20.693Z,1.40
2023-03-27T00:50:48.856Z,1.60
2023-03-27T00:53:17.979Z,1.67
2023-03-27T00:55:47.139Z,2.23
2023-03-27T00:58:17.044Z,2.20
2023-03-27T01:00:44.287Z,1.93
2023-03-27T01:03:12.054Z,2.23
2023-03-27T01:05:39.368Z,2.60
2023-03-27T01:08:07.190Z,2.47
2023-03-27T01:10:54.830Z,2.20
2023-03-27T01:13:28.694Z,2.20
2023-03-27T01:16:01.947Z,1.87
2023-03-27T01:18:31.887Z,1.80
2023-03-27T01:20:59.995Z,1.40
2023-03-27T01:23:36.212Z,1.83
2023-03-27T01:26:17.305Z,1.27
2023-03-27T01:29:21.344Z,1.20
2023-03-27T01:31:51.691Z,1.47
2023-03-27T01:34:27.857Z,1.20
2023-03-27T01:37:16.853Z,1.40
2023-03-27T01:39:53.765Z,1.40
2023-03-27T01:42:32.213Z,1.00
2023-03-27T01:45:02.559Z,1.20
2023-03-27T01:47:49.586Z,1.37
2023-03-27T01:50:20.245Z,1.13
2023-03-27T01:52:51.543Z,1.33
2023-03-27T01:55:19.428Z,0.80
2023-03-27T01:57:50.469Z,1.10
2023-03-27T02:00:21.925Z,0.97
2023-03-27T02:02:51.467Z,0.90
2023-03-27T02:05:29.389Z,0.93
2023-03-27T02:08:01.966Z,1.00
2023-03-27T02:10:32.237Z,1.27
2023-03-27T02:13:02.725Z,1.37
2023-03-27T02:15:34.484Z,1.17
2023-03-27T02:18:06.094Z,0.97
2023-03-27T02:20:34.064Z,1.17
2023-03-27T02:23:01.279Z,1.10
2023-03-27T02:25:32.068Z,1.10
2023-03-27T02:28:08.126Z,1.20
2023-03-27T02:30:36.879Z,1.30
2023-03-27T02:33:04.005Z,1.00
2023-03-27T02:35:36.201Z,1.03
2023-03-27T02:38:09.182Z,0.90
2023-03-27T02:40:42.062Z,1.17
2023-03-27T02:43:30.531Z,1.10
2023-03-27T02:46:09.872Z,1.00
2023-03-27T02:48:46.479Z,1.10
2023-03-27T02:51:23.552Z,1.17
2023-03-27T02:53:55.615Z,1.33
2023-03-27T02:56:24.046Z,1.20
2023-03-27T02:58:52.846Z,1.27
2023-03-27T03:01:22.224Z,1.30
2023-03-27T03:03:53.838Z,1.03
2023-03-27T03:06:22.015Z,1.20
2023-03-27T03:08:49.652Z,1.50
2023-03-27T03:11:16.692Z,1.40
2023-03-27T03:13:43.776Z,1.47
2023-03-27T03:16:11.207Z,1.60
2023-03-27T03:18:38.534Z,1.40
2023-03-27T03:21:05.809Z,1.60
2023-03-27T03:23:33.011Z,1.40
2023-03-27T03:26:00.136Z,1.70
2023-03-27T03:28:27.187Z,1.53
2023-03-27T03:30:54.766Z,1.60
2023-03-27T03:33:22.235Z,1.70
2023-03-27T03:35:50.218Z,2.03
2023-03-27T03:38:26.656Z,1.60
2023-03-27T03:40:54.482Z,1.40
2023-03-27T03:43:22.723Z,1.90
2023-03-27T03:45:50.558Z,1.90
2023-03-27T03:48:18.232Z,1.50
2023-03-27T03:50:46.340Z,1.53
2023-03-27T03:53:13.946Z,1.80
2023-03-27T03:55:41.072Z,1.80
2023-03-27T03:58:08.667Z,1.67
2023-03-27T04:00:38.270Z,1.80
2023-03-27T04:03:07.069Z,1.70
2023-03-27T04:05:34.528Z,1.90
2023-03-27T04:08:02.681Z,1.70
2023-03-27T04:10:30.349Z,2.10
2023-03-27T04:12:58.527Z,1.80
2023-03-27T04:15:27.165Z,2.03
2023-03-27T04:17:54.697Z,1.43
2023-03-27T04:20:21.867Z,1.67
2023-03-27T04:22:51.324Z,2.10
2023-03-27T04:25:19.666Z,1.97
2023-03-27T04:27:46.735Z,1.80
2023-03-27T04:30:14.156Z,1.90
2023-03-27T04:32:41.460Z,1.70
2023-03-27T04:35:10.912Z,1.93
2023-03-27T04:37:41.618Z,1.87
2023-03-27T04:40:09.048Z,1.60
2023-03-27T04:42:36.139Z,1.47
2023-03-27T04:45:04.217Z,1.57
2023-03-27T04:47:31.799Z,1.60
2023-03-27T04:50:00.970Z,1.43
2023-03-27T04:52:29.565Z,1.73
2023-03-27T04:54:58.796Z,1.83
2023-03-27T04:57:27.740Z,1.80
2023-03-27T04:59:55.090Z,1.90
2023-03-27T05:02:23.026Z,1.80
2023-03-27T05:04:50.268Z,1.80
2023-03-27T05:07:17.339Z,1.97
2023-03-27T05:09:44.467Z,1.83
2023-03-27T05:12:11.876Z,1.47
2023-03-27T05:14:38.995Z,1.50
2023-03-27T05:17:06.775Z,1.73
2023-03-27T05:19:35.155Z,1.90
2023-03-27T05:22:02.254Z,1.60
2023-03-27T05:24:29.394Z,1.80
2023-03-27T05:26:56.457Z,1.47
2023-03-27T05:29:23.642Z,1.90
2023-03-27T05:31:50.843Z,1.63
2023-03-27T05:34:19.196Z,1.87
2023-03-27T05:36:47.095Z,1.47
2023-03-27T05:39:15.198Z,2.13
2023-03-27T05:41:42.249Z,1.50
2023-03-27T05:44:09.371Z,1.83
2023-03-27T05:46:36.732Z,1.73
2023-03-27T05:49:04.416Z,1.70
2023-03-27T05:51:31.777Z,1.37
2023-03-27T05:53:58.953Z,1.23
2023-03-27T05:56:26.055Z,1.60
2023-03-27T05:58:53.139Z,1.47
2023-03-27T06:01:20.844Z,1.43
2023-03-27T06:03:49.109Z,1.30
2023-03-27T06:06:16.789Z,1.33
2023-03-27T06:08:43.915Z,1.63
2023-03-27T06:11:11.675Z,1.63
2023-03-27T06:13:39.253Z,1.60
2023-03-27T06:16:06.742Z,1.30
2023-03-27T06:18:34.289Z,1.40
2023-03-27T06:21:02.808Z,1.33
2023-03-27T06:23:29.958Z,1.30
2023-03-27T06:25:57.221Z,1.37
2023-03-27T06:28:24.442Z,1.60
2023-03-27T06:30:51.732Z,1.60
2023-03-27T06:33:19.060Z,1.70
2023-03-27T06:35:52.548Z,1.90
2023-03-27T06:38:21.061Z,1.43
2023-03-27T06:40:48.351Z,1.73
2023-03-27T06:43:18.913Z,1.70
2023-03-27T06:45:49.063Z,1.37
2023-03-27T06:48:21.196Z,1.70
2023-03-27T06:50:50.084Z,1.90
2023-03-27T06:55:48.278Z,1.40
2023-03-27T06:58:16.660Z,1.23
2023-03-27T07:00:44.379Z,1.20
2023-03-27T07:03:11.903Z,1.33
2023-03-27T07:05:40.821Z,1.00
2023-03-27T07:08:21.631Z,1.10
2023-03-27T07:10:59.991Z,1.10
2023-03-27T07:13:35.877Z,1.27
2023-03-27T07:16:03.786Z,1.10
2023-03-27T07:18:31.072Z,1.13
2023-03-27T07:20:58.496Z,0.90
2023-03-27T07:23:26.884Z,0.87
2023-03-27T07:25:58.181Z,0.97
2023-03-27T07:28:25.416Z,0.60
2023-03-27T07:30:52.559Z,0.60
2023-03-27T07:33:19.991Z,0.67
2023-03-27T07:35:48.497Z,0.67
2023-03-27T07:38:16.817Z,0.63
2023-03-27T07:40:46.177Z,0.50
2023-03-27T07:43:13.596Z,0.63
2023-03-27T07:45:41.689Z,0.63
2023-03-27T07:48:15.964Z,0.60
2023-03-27T07:50:43.544Z,0.83
2023-03-27T07:53:33.318Z,0.70
2023-03-27T07:55:59.204Z,0.90
2023-03-27T07:58:26.549Z,0.80
2023-03-27T08:00:53.869Z,0.70
2023-03-27T08:03:22.100Z,0.70
2023-03-27T08:05:56.694Z,0.70
2023-03-27T08:08:24.490Z,0.97
2023-03-27T08:10:52.032Z,0.97
2023-03-27T08:13:19.076Z,0.87
2023-03-27T08:15:46.618Z,1.03
2023-03-27T08:18:13.791Z,0.80
2023-03-27T08:20:41.104Z,1.07
2023-03-27T08:23:08.457Z,1.00
2023-03-27T08:25:35.656Z,1.00
2023-03-27T08:28:02.900Z,1.13
2023-03-27T08:30:30.334Z,0.90
2023-03-27T08:32:59.963Z,0.80
2023-03-27T08:35:27.111Z,0.80
2023-03-27T08:37:54.304Z,0.70
2023-03-27T08:40:26.084Z,0.90
2023-03-27T08:42:54.718Z,0.77
2023-03-27T08:45:36.613Z,1.10
2023-03-27T08:48:07.465Z,0.93
2023-03-27T08:50:37.151Z,0.90
2023-03-27T08:53:07.339Z,0.70
2023-03-27T08:55:38.940Z,0.67
2023-03-27T08:58:06.052Z,0.67
2023-03-27T09:00:37.085Z,0.60
2023-03-27T09:03:14.330Z,0.70
2023-03-27T09:05:43.552Z,0.70
2023-03-27T09:08:16.492Z,0.70
2023-03-27T09:10:49.472Z,0.60
2023-03-27T09:13:19.858Z,0.90
2023-03-27T09:15:53.488Z,1.00
2023-03-27T09:18:20.883Z,1.10
2023-03-27T09:20:58.351Z,1.10
2023-03-27T09:23:29.610Z,0.90
2023-03-27T09:26:01.438Z,0.90
2023-03-27T09:28:32.873Z,1.00
2023-03-27T09:31:01.782Z,1.00
2023-03-27T09:33:28.904Z,1.00
2023-03-27T09:35:57.254Z,0.80
2023-03-27T09:38:27.740Z,0.87
2023-03-27T09:40:55.106Z,1.07
2023-03-27T09:43:24.839Z,1.20
2023-03-27T09:45:53.679Z,1.17
2023-03-27T09:48:38.388Z,1.40
2023-03-27T09:51:05.810Z,1.20
2023-03-27T09:53:33.324Z,0.90
2023-03-27T09:56:14.310Z,0.90
2023-03-27T09:58:44.062Z,0.80
2023-03-27T10:01:13.746Z,0.93
2023-03-27T10:03:48.849Z,0.83
2023-03-27T10:06:25.198Z,1.00
2023-03-27T10:08:52.860Z,0.93
2023-03-27T10:11:22.746Z,1.30
2023-03-27T10:13:50.818Z,1.10
2023-03-27T10:16:19.473Z,1.30
2023-03-27T10:18:48.250Z,1.10
2023-03-27T10:21:27.248Z,1.00
2023-03-27T10:24:00.869Z,0.93
2023-03-27T10:26:28.559Z,1.10
2023-03-27T10:29:01.454Z,1.17
2023-03-27T10:31:29.657Z,1.10
2023-03-27T10:33:57.240Z,1.10
2023-03-27T10:36:25.269Z,1.17
2023-03-27T10:39:02.899Z,0.90
2023-03-27T10:41:30.353Z,0.80
2023-03-27T10:43:57.680Z,0.90
2023-03-27T10:46:26.914Z,0.80
2023-03-27T10:48:54.097Z,0.90
2023-03-27T10:51:46.070Z,0.90
2023-03-27T10:54:34.363Z,0.80
2023-03-27T10:57:10.843Z,0.53
2023-03-27T10:59:42.347Z,0.60
2023-03-27T11:02:15.648Z,0.70
2023-03-27T11:04:48.971Z,0.70
2023-03-27T11:07:20.673Z,0.57
2023-03-27T11:09:56.134Z,0.70
2023-03-27T11:12:23.562Z,0.60
2023-03-27T11:15:04.336Z,0.90
2023-03-27T11:17:42.186Z,0.90
2023-03-27T11:20:19.396Z,1.03
2023-03-27T11:22:54.725Z,0.70
2023-03-27T11:25:31.821Z,0.80
2023-03-27T11:27:58.910Z,0.80
2023-03-27T11:30:49.173Z,0.80
2023-03-27T11:33:16.927Z,0.70
2023-03-27T11:35:50.183Z,0.70
2023-03-27T11:38:21.682Z,0.60
2023-03-27T11:40:49.543Z,0.53
2023-03-27T11:43:18.588Z,0.60
2023-03-27T11:45:48.804Z,0.70
2023-03-27T11:48:33.966Z,0.80
2023-03-27T11:51:20.649Z,0.70
2023-03-27T11:54:00.606Z,0.53
2023-03-27T11:56:39.911Z,1.10
2023-03-27T11:59:25.643Z,0.60
2023-03-27T12:02:08.690Z,1.00
2023-03-27T12:04:38.606Z,0.70
2023-03-27T12:07:35.307Z,0.90
2023-03-27T12:10:28.505Z,0.63
2023-03-27T12:13:16.571Z,0.80
2023-03-27T12:16:02.763Z,1.03
2023-03-27T12:18:54.424Z,0.90
2023-03-27T12:21:34.093Z,0.87
2023-03-27T12:24:13.268Z,0.90
2023-03-27T12:26:40.362Z,0.60
2023-03-27T12:29:23.413Z,0.60
2023-03-27T12:31:52.886Z,0.60
2023-03-27T12:34:29.041Z,0.80
2023-03-27T12:36:56.391Z,0.70
2023-03-27T12:39:25.087Z,0.70
2023-03-27T12:41:52.510Z,0.90
2023-03-27T12:44:21.923Z,0.60
2023-03-27T12:47:06.150Z,0.90
2023-03-27T12:49:46.441Z,1.00
2023-03-27T12:52:15.556Z,0.90
2023-03-27T12:55:02.675Z,0.80
2023-03-27T12:57:29.922Z,0.90
2023-03-27T12:59:59.129Z,0.70
2023-03-27T13:02:35.228Z,0.60
2023-03-27T13:05:26.863Z,0.80
2023-03-27T13:08:03.731Z,0.73
2023-03-27T13:10:30.866Z,0.80
2023-03-27T13:13:07.276Z,0.90
2023-03-27T13:15:58.330Z,0.77
2023-03-27T13:18:28.498Z,0.67
2023-03-27T13:21:01.941Z,0.60
2023-03-27T13:23:32.067Z,0.67
2023-03-27T13:26:18.516Z,0.70
2023-03-27T13:28:48.642Z,0.60
2023-03-27T13:31:35.911Z,0.60
2023-03-27T13:34:21.716Z,0.70
2023-03-27T13:36:49.008Z,0.60
2023-03-27T13:39:21.181Z,0.70
2023-03-27T13:41:48.408Z,0.50
2023-03-27T13:44:18.550Z,0.43
2023-03-27T13:46:48.130Z,0.82
2023-03-27T13:49:33.544Z,0.80
2023-03-27T13:52:19.444Z,0.60
2023-03-27T13:54:52.092Z,0.80
2023-03-27T13:57:21.986Z,0.87
2023-03-27T14:00:08.403Z,0.77
2023-03-27T14:02:38.345Z,0.83
2023-03-27T14:05:44.198Z,0.90
2023-03-27T14:08:19.605Z,1.00
2023-03-27T14:11:01.817Z,1.00
2023-03-27T14:13:31.799Z,0.73
2023-03-27T14:15:59.111Z,0.80
2023-03-27T14:18:32.441Z,0.80
2023-03-27T14:21:01.851Z,0.73
2023-03-27T14:23:30.573Z,0.40
2023-03-27T14:26:08.881Z,0.73
2023-03-27T14:28:46.728Z,0.63
2023-03-27T14:31:18.872Z,0.60
2023-03-27T14:33:49.609Z,0.60
2023-03-27T14:36:16.751Z,0.80
2023-03-27T14:38:43.869Z,0.60
2023-03-27T14:41:22.134Z,1.10
2023-03-27T14:43:49.778Z,0.90
2023-03-27T14:46:17.640Z,0.90
2023-03-27T14:48:45.975Z,0.60
2023-03-27T14:51:15.840Z,0.80
2023-03-27T14:53:44.873Z,0.90
2023-03-27T14:56:26.168Z,1.10
2023-03-27T14:58:54.745Z,1.10
2023-03-27T15:01:22.097Z,1.07
2023-03-27T15:03:51.612Z,1.13
2023-03-27T15:06:21.728Z,1.00
2023-03-27T15:08:52.728Z,1.20
2023-03-27T15:11:21.019Z,1.10
2023-03-27T15:13:48.404Z,0.87
2023-03-27T15:16:23.402Z,0.93
2023-03-27T15:18:50.844Z,1.07
2023-03-27T15:21:20.073Z,1.07
2023-03-27T15:23:59.870Z,1.00
2023-03-27T15:26:31.969Z,1.00
2023-03-27T15:29:01.573Z,0.87
2023-03-27T15:31:29.881Z,0.60
2023-03-27T15:34:03.432Z,0.70
2023-03-27T15:36:33.070Z,0.70
2023-03-27T15:39:01.300Z,0.83
2023-03-27T15:44:19.803Z,0.70
2023-03-27T15:46:49.921Z,0.70
2023-03-27T15:49:37.160Z,0.50
2023-03-27T15:52:23.310Z,0.50
2023-03-27T15:54:54.465Z,0.70
2023-03-27T15:57:21.657Z,0.80
2023-03-27T15:59:51.960Z,0.70
2023-03-27T16:02:20.521Z,0.73
2023-03-27T16:04:55.630Z,0.67
2023-03-27T16:07:33.953Z,0.90
2023-03-27T16:10:02.894Z,0.60
2023-03-27T16:12:34.658Z,0.70
2023-03-27T16:15:05.721Z,0.70
2023-03-27T16:17:40.290Z,1.00
2023-03-27T16:20:13.367Z,1.00
2023-03-27T16:22:40.629Z,1.20
2023-03-27T16:25:09.472Z,1.00
2023-03-27T16:27:38.484Z,1.20
2023-03-27T16:30:07.954Z,1.67
2023-03-27T16:32:36.072Z,0.90
2023-03-27T16:35:03.268Z,1.30
2023-03-27T16:37:30.385Z,1.37
2023-03-27T16:39:58.016Z,1.30
2023-03-27T16:42:26.442Z,1.30
2023-03-27T16:44:53.745Z,1.27
2023-03-27T16:47:23.062Z,1.20
2023-03-27T16:50:03.535Z,1.23
2023-03-27T16:52:37.655Z,1.30
2023-03-27T16:55:07.190Z,1.10
2023-03-27T16:57:34.870Z,1.37
2023-03-27T17:00:02.000Z,1.60
2023-03-27T17:02:30.721Z,1.57
2023-03-27T17:04:59.155Z,1.33
2023-03-27T17:07:27.439Z,1.20
2023-03-27T17:09:54.679Z,1.53
2023-03-27T17:12:21.816Z,1.40
2023-03-27T17:14:48.931Z,1.43
2023-03-27T17:17:16.116Z,1.40
2023-03-27T17:19:43.239Z,1.90
2023-03-27T17:22:13.008Z,1.73
2023-03-27T17:24:53.298Z,0.90
2023-03-27T17:27:24.143Z,1.00
2023-03-27T17:29:51.973Z,0.60
2023-03-27T17:32:19.087Z,0.50
2023-03-27T17:34:46.215Z,0.47
2023-03-27T17:37:13.303Z,0.50
2023-03-27T17:39:40.998Z,0.50
2023-03-27T17:42:08.190Z,0.60
2023-03-27T17:44:35.284Z,0.50
2023-03-27T17:47:02.330Z,0.50
2023-03-27T17:49:31.302Z,0.50
2023-03-27T17:51:58.488Z,1.10
2023-03-27T17:54:25.643Z,0.70
2023-03-27T17:56:52.799Z,0.90
2023-03-27T17:59:20.971Z,0.90
2023-03-27T18:01:48.179Z,0.80
2023-03-27T18:04:15.391Z,1.10
2023-03-27T18:06:42.571Z,0.80
2023-03-27T18:09:09.747Z,0.80
2023-03-27T18:11:36.985Z,0.80
2023-03-27T18:14:04.112Z,1.00
2023-03-27T18:16:31.246Z,1.10
2023-03-27T18:18:58.412Z,1.40
2023-03-27T18:21:25.512Z,1.20
2023-03-27T18:23:53.762Z,1.10
2023-03-27T18:26:21.111Z,1.30
2023-03-27T18:28:48.204Z,1.20
2023-03-27T18:31:17.649Z,1.30
2023-03-27T18:33:44.854Z,1.50
2023-03-27T18:36:12.301Z,1.40
2023-03-27T18:38:40.451Z,1.50
2023-03-27T18:41:07.508Z,1.50
2023-03-27T18:43:34.929Z,2.30
2023-03-27T18:46:04.159Z,1.67
2023-03-27T18:48:31.769Z,1.50
2023-03-27T18:50:59.979Z,1.40
2023-03-27T18:53:27.082Z,1.60
2023-03-27T18:55:54.957Z,1.60
2023-03-27T18:58:27.381Z,1.33
2023-03-27T19:00:55.668Z,1.30
2023-03-27T19:03:23.717Z,1.20
2023-03-27T19:05:52.029Z,1.10
2023-03-27T19:08:20.179Z,0.93
2023-03-27T19:10:47.286Z,1.20
2023-03-27T19:13:14.391Z,1.30
2023-03-27T19:15:42.042Z,1.27
2023-03-27T19:18:09.548Z,1.40
2023-03-27T19:20:36.870Z,1.00
2023-03-27T19:23:04.545Z,1.20
2023-03-27T19:25:35.253Z,1.40
2023-03-27T19:28:02.852Z,1.20
2023-03-27T19:30:30.032Z,1.13
2023-03-27T19:32:58.255Z,1.57
2023-03-27T19:35:25.805Z,1.20
2023-03-27T19:37:54.210Z,1.30
2023-03-27T19:40:21.418Z,1.50
2023-03-27T19:42:48.561Z,1.63
2023-03-27T19:45:16.170Z,1.57
2023-03-27T19:47:43.824Z,1.50
2023-03-27T19:50:11.115Z,1.20
2023-03-27T19:52:38.435Z,1.30
2023-03-27T19:55:06.882Z,1.00
2023-03-27T19:57:34.068Z,1.37
2023-03-27T20:00:01.290Z,1.17
2023-03-27T20:02:28.502Z,1.57
2023-03-27T20:04:55.670Z,1.40
2023-03-27T20:07:22.752Z,1.50
2023-03-27T20:09:49.868Z,1.57
2023-03-27T20:12:19.611Z,1.43
2023-03-27T20:15:01.960Z,1.40
2023-03-27T20:17:34.199Z,1.47
2023-03-27T20:20:01.321Z,1.23
2023-03-27T20:22:29.636Z,1.70
2023-03-27T20:24:56.827Z,1.40
2023-03-27T20:27:23.986Z,1.33
2023-03-27T20:29:51.115Z,1.30
2023-03-27T20:32:18.209Z,1.13
2023-03-27T20:34:48.939Z,1.27
2023-03-27T20:37:16.255Z,1.30
2023-03-27T20:39:49.795Z,1.10
2023-03-27T20:42:18.100Z,1.37
2023-03-27T20:44:46.056Z,1.10
2023-03-27T20:47:15.016Z,1.10
2023-03-27T20:49:43.189Z,1.00
2023-03-27T20:52:11.301Z,1.10
2023-03-27T20:54:38.464Z,0.90
2023-03-27T20:57:06.271Z,0.77
2023-03-27T20:59:33.613Z,0.93
2023-03-27T21:02:01.457Z,1.00
2023-03-27T21:04:29.634Z,0.93
2023-03-27T21:06:56.688Z,0.50
2023-03-27T21:09:25.104Z,0.90
2023-03-27T21:11:53.334Z,0.77
2023-03-27T21:14:20.609Z,0.70
2023-03-27T21:16:47.740Z,0.90
2023-03-27T21:19:14.933Z,0.80
2023-03-27T21:21:42.048Z,0.60
2023-03-27T21:24:09.130Z,0.87
2023-03-27T21:26:36.351Z,0.70
2023-03-27T21:29:03.871Z,0.80
2023-03-27T21:31:31.063Z,0.60
2023-03-27T21:33:58.225Z,0.60
2023-03-27T21:36:27.980Z,0.70
2023-03-27T21:38:56.622Z,0.60
2023-03-27T21:41:23.847Z,1.30
2023-03-27T21:43:51.307Z,1.00
2023-03-27T21:46:18.449Z,1.13
2023-03-27T21:48:49.164Z,1.23
2023-03-27T21:51:16.251Z,1.00
2023-03-27T21:53:43.370Z,1.20
2023-03-27T21:56:10.603Z,1.73
2023-03-27T21:58:37.845Z,1.43
2023-03-27T22:01:05.351Z,1.47
2023-03-27T22:03:32.524Z,1.47
2023-03-27T22:06:12.906Z,1.50
2023-03-27T22:08:41.467Z,1.40
2023-03-27T22:11:08.601Z,1.17
2023-03-27T22:13:36.453Z,1.20
2023-03-27T22:16:14.685Z,1.10
2023-03-27T22:18:41.782Z,1.27
2023-03-27T22:21:28.068Z,0.83
2023-03-27T22:23:56.128Z,0.90
2023-03-27T22:26:27.712Z,0.70
2023-03-27T22:28:56.371Z,0.73
2023-03-27T22:31:23.991Z,0.67
2023-03-27T22:33:51.345Z,0.90
2023-03-27T22:36:19.190Z,0.70
2023-03-27T22:38:46.459Z,0.77
2023-03-27T22:41:14.201Z,0.70
2023-03-27T22:43:41.778Z,0.97
2023-03-27T22:46:10.463Z,0.90
2023-03-27T22:48:37.693Z,0.60
2023-03-27T22:51:05.137Z,0.90
2023-03-27T22:53:32.541Z,0.90
2023-03-27T22:56:00.826Z,0.90
2023-03-27T22:58:28.666Z,0.90
2023-03-27T23:00:56.180Z,0.70
2023-03-27T23:03:24.003Z,0.80
2023-03-27T23:05:51.881Z,0.63
2023-03-27T23:08:20.257Z,0.70
2023-03-27T23:10:54.225Z,0.70
2023-03-27T23:13:21.475Z,0.60
2023-03-27T23:15:48.634Z,0.80
2023-03-27T23:18:15.783Z,0.50
2023-03-27T23:20:42.950Z,0.67
2023-03-27T23:23:10.087Z,0.73
2023-03-27T23:25:37.213Z,0.70
2023-03-27T23:28:04.328Z,0.70
2023-03-27T23:30:31.429Z,0.53
2023-03-27T23:32:58.586Z,0.67
2023-03-27T23:35:25.745Z,0.70
2023-03-27T23:37:52.842Z,0.80
2023-03-27T23:40:19.891Z,0.50
2023-03-27T23:42:46.956Z,0.70
2023-03-27T23:45:14.154Z,0.70
2023-03-27T23:47:41.343Z,0.70
2023-03-27T23:50:08.657Z,1.00
2023-03-27T23:52:35.912Z,0.90
2023-03-27T23:55:03.005Z,0.80
2023-03-27T23:57:30.104Z,0.60
2023-03-27T23:59:57.267Z,0.70
